createdAt,value
2024-01-11T00:01:40.863Z,-6.93
2024-01-11T00:04:10.221Z,-7.17
2024-01-11T00:06:43.002Z,-7.14
2024-01-11T00:09:10.932Z,-6.93
2024-01-11T00:11:39.012Z,-6.95
2024-01-11T00:14:07.141Z,-6.88
2024-01-11T00:16:35.162Z,-6.86
2024-01-11T00:19:03.218Z,-6.69
2024-01-11T00:21:32.788Z,-6.60
2024-01-11T00:24:00.738Z,-6.51
2024-01-11T00:26:28.856Z,-6.44
2024-01-11T00:28:56.882Z,-6.35
2024-01-11T00:31:24.899Z,-6.31
2024-01-11T00:33:52.951Z,-6.20
2024-01-11T00:36:21.239Z,-6.07
2024-01-11T00:38:50.556Z,-6.04
2024-01-11T00:41:18.709Z,-6.03
2024-01-11T00:43:46.752Z,-5.95
2024-01-11T00:46:14.797Z,-6.02
2024-01-11T00:48:42.856Z,-6.00
2024-01-11T00:51:10.977Z,-5.94
2024-01-11T00:53:39.168Z,-5.83
2024-01-11T00:56:08.695Z,-5.83
2024-01-11T00:58:36.671Z,-5.73
2024-01-11T01:01:04.970Z,-5.96
2024-01-11T01:03:32.987Z,-5.59
2024-01-11T01:06:02.804Z,-5.56
2024-01-11T01:08:30.914Z,-5.54
2024-01-11T01:10:58.956Z,-5.41
2024-01-11T01:13:28.371Z,-5.39
2024-01-11T01:15:57.227Z,-5.39
2024-01-11T01:18:25.325Z,-5.50
2024-01-11T01:20:53.408Z,-5.25
2024-01-11T01:23:21.706Z,-5.21
2024-01-11T01:25:49.700Z,-5.19
2024-01-11T01:28:17.617Z,-5.16
2024-01-11T01:30:47.011Z,-5.18
2024-01-11T01:33:15.240Z,-5.21
2024-01-11T01:35:43.402Z,-5.13
2024-01-11T01:38:11.419Z,-5.23
2024-01-11T01:40:39.624Z,-5.34
2024-01-11T01:43:09.631Z,-5.42
2024-01-11T01:45:37.554Z,-5.42
2024-01-11T01:48:07.645Z,-5.36
2024-01-11T01:50:35.732Z,-5.40
2024-01-11T01:53:04.192Z,-5.45
2024-01-11T01:55:32.146Z,-5.48
2024-01-11T01:58:00.175Z,-5.53
2024-01-11T02:00:28.275Z,-5.63
2024-01-11T02:02:56.504Z,-5.63
2024-01-11T02:05:26.078Z,-5.65
2024-01-11T02:07:54.214Z,-5.71
2024-01-11T02:10:22.213Z,-5.74
2024-01-11T02:12:50.289Z,-5.78
2024-01-11T02:15:18.297Z,-5.79
2024-01-11T02:17:46.410Z,-5.79
2024-01-11T02:20:15.052Z,-5.82
2024-01-11T02:22:46.395Z,-5.87
2024-01-11T02:25:15.740Z,-5.88
2024-01-11T02:27:47.938Z,-5.85
2024-01-11T02:30:16.485Z,-5.89
2024-01-11T02:32:47.461Z,-5.84
2024-01-11T02:35:15.736Z,-5.84
2024-01-11T02:37:43.687Z,-5.82
2024-01-11T02:40:12.277Z,-5.82
2024-01-11T02:42:41.607Z,-5.78
2024-01-11T02:45:09.909Z,-5.80
2024-01-11T02:47:38.079Z,-5.82
2024-01-11T02:50:06.369Z,-5.92
2024-01-11T02:52:34.399Z,-5.89
2024-01-11T02:55:02.426Z,-5.93
2024-01-11T02:57:30.388Z,-6.04
2024-01-11T02:59:59.680Z,-6.10
2024-01-11T03:02:27.638Z,-6.12
2024-01-11T03:04:55.624Z,-6.15
2024-01-11T03:07:23.620Z,-6.15
2024-01-11T03:09:51.584Z,-6.14
2024-01-11T03:12:19.540Z,-6.14
2024-01-11T03:14:47.601Z,-6.23
2024-01-11T03:17:17.072Z,-6.36
2024-01-11T03:19:45.115Z,-6.31
2024-01-11T03:22:13.988Z,-6.35
2024-01-11T03:24:41.999Z,-6.40
2024-01-11T03:27:08.993Z,-6.33
2024-01-11T03:29:36.986Z,-6.40
2024-01-11T03:32:05.378Z,-6.40
2024-01-11T03:34:34.870Z,-6.54
2024-01-11T03:37:02.888Z,-6.48
2024-01-11T03:39:30.809Z,-6.53
2024-01-11T03:41:58.772Z,-6.51
2024-01-11T03:44:26.806Z,-6.52
2024-01-11T03:46:54.821Z,-6.54
2024-01-11T03:49:22.829Z,-6.58
2024-01-11T03:51:52.200Z,-6.62
2024-01-11T03:54:20.248Z,-6.59
2024-01-11T03:56:48.262Z,-6.59
2024-01-11T03:59:16.291Z,-6.60
2024-01-11T04:01:44.282Z,-6.59
2024-01-11T04:04:13.497Z,-6.62
2024-01-11T04:06:41.481Z,-6.68
2024-01-11T04:09:10.832Z,-6.67
2024-01-11T04:11:38.868Z,-6.71
2024-01-11T04:14:07.556Z,-6.77
2024-01-11T04:16:35.566Z,-6.73
2024-01-11T04:19:05.394Z,-6.69
2024-01-11T04:21:33.450Z,-6.65
2024-01-11T04:24:01.412Z,-6.58
2024-01-11T04:26:30.888Z,-6.60
2024-01-11T04:29:00.995Z,-6.45
2024-01-11T04:31:29.053Z,-6.46
2024-01-11T04:33:57.358Z,-6.38
2024-01-11T04:36:25.542Z,-6.31
2024-01-11T04:38:53.517Z,-6.29
2024-01-11T04:41:21.622Z,-6.29
2024-01-11T04:43:50.939Z,-6.34
2024-01-11T04:46:19.111Z,-6.33
2024-01-11T04:48:47.272Z,-6.50
2024-01-11T04:51:15.559Z,-6.44
2024-01-11T04:53:43.771Z,-6.38
2024-01-11T04:56:12.732Z,-6.36
2024-01-11T04:58:43.238Z,-6.35
2024-01-11T05:01:15.457Z,-6.38
2024-01-11T05:03:43.648Z,-6.47
2024-01-11T05:06:17.554Z,-6.52
2024-01-11T05:08:46.048Z,-6.52
2024-01-11T05:11:18.624Z,-6.55
2024-01-11T05:13:48.866Z,-6.57
2024-01-11T05:16:22.614Z,-6.71
2024-01-11T05:18:50.768Z,-6.72
2024-01-11T05:21:18.768Z,-6.74
2024-01-11T05:23:46.832Z,-6.73
2024-01-11T05:26:15.402Z,-6.79
2024-01-11T05:28:43.336Z,-6.91
2024-01-11T05:31:11.858Z,-6.99
2024-01-11T05:33:41.434Z,-7.18
2024-01-11T05:36:09.710Z,-7.19
2024-01-11T05:38:37.763Z,-7.13
2024-01-11T05:41:05.977Z,-7.06
2024-01-11T05:43:33.948Z,-7.01
2024-01-11T05:46:02.039Z,-6.98
2024-01-11T05:48:30.123Z,-6.96
2024-01-11T05:50:59.537Z,-6.93
2024-01-11T05:53:28.807Z,-6.91
2024-01-11T05:55:57.578Z,-6.84
2024-01-11T05:58:25.651Z,-6.84
2024-01-11T06:00:53.747Z,-6.75
2024-01-11T06:03:22.224Z,-6.73
2024-01-11T06:05:50.368Z,-6.72
2024-01-11T06:08:19.716Z,-6.62
2024-01-11T06:10:47.694Z,-6.50
2024-01-11T06:13:15.792Z,-6.36
2024-01-11T06:15:43.761Z,-6.28
2024-01-11T06:18:11.878Z,-6.15
2024-01-11T06:20:39.971Z,-5.98
2024-01-11T06:23:07.994Z,-5.87
2024-01-11T06:25:37.391Z,-5.77
2024-01-11T06:28:07.971Z,-5.71
2024-01-11T06:30:35.976Z,-5.69
2024-01-11T06:33:04.603Z,-5.71
2024-01-11T06:35:32.706Z,-5.69
2024-01-11T06:38:00.708Z,-5.73
2024-01-11T06:40:28.661Z,-5.71
2024-01-11T06:42:58.040Z,-5.65
2024-01-11T06:45:25.980Z,-5.68
2024-01-11T06:47:54.039Z,-5.62
2024-01-11T06:50:22.151Z,-5.54
2024-01-11T06:52:50.138Z,-5.48
2024-01-11T06:55:18.061Z,-5.51
2024-01-11T06:57:49.004Z,-5.44
2024-01-11T07:00:18.552Z,-5.37
2024-01-11T07:02:46.685Z,-5.21
2024-01-11T07:05:14.995Z,-5.16
2024-01-11T07:07:43.061Z,-5.08
2024-01-11T07:10:11.557Z,-4.99
2024-01-11T07:12:40.112Z,-4.87
2024-01-11T07:15:09.170Z,-4.75
2024-01-11T07:17:38.578Z,-4.73
2024-01-11T07:20:09.026Z,-4.76
2024-01-11T07:22:39.664Z,-4.61
2024-01-11T07:25:09.882Z,-4.45
2024-01-11T07:27:37.796Z,-4.45
2024-01-11T07:30:07.897Z,-4.37
2024-01-11T07:32:36.084Z,-4.23
2024-01-11T07:35:10.734Z,-4.05
2024-01-11T07:37:40.394Z,-3.97
2024-01-11T07:40:12.152Z,-3.83
2024-01-11T07:42:40.474Z,-3.76
2024-01-11T07:45:11.302Z,-3.62
2024-01-11T07:47:39.591Z,-3.54
2024-01-11T07:50:10.839Z,-3.45
2024-01-11T07:52:39.032Z,-3.40
2024-01-11T07:55:08.849Z,-3.18
2024-01-11T07:57:36.893Z,-3.10
2024-01-11T08:00:07.736Z,-2.95
2024-01-11T08:02:35.931Z,-2.74
2024-01-11T08:05:04.124Z,-2.66
2024-01-11T08:07:34.082Z,-2.48
2024-01-11T08:10:02.219Z,-2.46
2024-01-11T08:12:31.010Z,-2.54
2024-01-11T08:14:59.052Z,-2.51
2024-01-11T08:17:27.003Z,-2.39
2024-01-11T08:19:56.475Z,-2.22
2024-01-11T08:22:27.598Z,-2.09
2024-01-11T08:24:58.162Z,-1.77
2024-01-11T08:27:26.113Z,-1.45
2024-01-11T08:29:54.062Z,-1.16
2024-01-11T08:32:28.850Z,-1.00
2024-01-11T08:35:00.421Z,-0.85
2024-01-11T08:37:28.662Z,-0.63
2024-01-11T08:39:57.974Z,-0.57
2024-01-11T08:42:25.990Z,-0.41
2024-01-11T08:44:54.098Z,-0.32
2024-01-11T08:47:22.051Z,-0.08
2024-01-11T08:49:50.371Z,0.12
2024-01-11T08:52:18.319Z,0.27
2024-01-11T08:54:46.307Z,0.53
2024-01-11T08:57:16.316Z,0.63
2024-01-11T08:59:44.378Z,0.78
2024-01-11T09:02:16.748Z,1.03
2024-01-11T09:04:48.592Z,1.23
2024-01-11T09:07:17.122Z,1.31
2024-01-11T09:09:51.245Z,1.20
2024-01-11T09:12:25.860Z,1.43
2024-01-11T09:14:54.044Z,1.51
2024-01-11T09:17:23.138Z,1.79
2024-01-11T09:19:51.236Z,2.04
2024-01-11T09:22:19.233Z,2.10
2024-01-11T09:24:47.184Z,2.40
2024-01-11T09:27:15.164Z,2.69
2024-01-11T09:29:46.651Z,2.61
2024-01-11T09:32:15.050Z,2.59
2024-01-11T09:34:43.361Z,2.73
2024-01-11T09:37:11.344Z,2.87
2024-01-11T09:39:39.336Z,3.03
2024-01-11T09:42:10.654Z,3.18
2024-01-11T09:44:39.882Z,3.36
2024-01-11T09:47:13.845Z,3.96
2024-01-11T09:49:43.398Z,4.16
2024-01-11T09:52:12.184Z,4.91
2024-01-11T09:54:41.380Z,5.11
2024-01-11T09:57:09.445Z,6.00
2024-01-11T09:59:37.779Z,6.35
2024-01-11T10:02:09.522Z,6.20
2024-01-11T10:04:39.226Z,5.75
2024-01-11T10:07:07.499Z,6.63
2024-01-11T10:09:36.106Z,6.85
2024-01-11T10:12:04.600Z,7.32
2024-01-11T10:14:33.362Z,7.10
2024-01-11T10:17:01.466Z,7.39
2024-01-11T10:19:29.710Z,7.40
2024-01-11T10:21:59.961Z,8.30
2024-01-11T10:24:28.129Z,8.40
2024-01-11T10:26:58.087Z,8.86
2024-01-11T10:29:30.489Z,8.82
2024-01-11T10:31:58.717Z,8.93
2024-01-11T10:34:26.752Z,9.65
2024-01-11T10:36:54.771Z,10.36
2024-01-11T10:39:26.601Z,11.05
2024-01-11T10:42:06.162Z,11.61
2024-01-11T10:44:36.170Z,12.21
2024-01-11T10:47:04.946Z,12.40
2024-01-11T10:49:32.946Z,12.65
2024-01-11T10:52:01.711Z,12.64
2024-01-11T10:54:31.901Z,13.08
2024-01-11T10:57:00.927Z,12.54
2024-01-11T10:59:29.448Z,12.82
2024-01-11T11:01:59.387Z,13.26
2024-01-11T11:04:27.350Z,13.18
2024-01-11T11:06:58.352Z,13.74
2024-01-11T11:09:26.745Z,14.02
2024-01-11T11:11:57.919Z,13.68
2024-01-11T11:14:25.914Z,13.48
2024-01-11T11:16:53.991Z,12.55
2024-01-11T11:19:22.182Z,12.20
2024-01-11T11:21:51.925Z,11.19
2024-01-11T11:24:20.010Z,9.91
2024-01-11T11:26:48.437Z,10.15
2024-01-11T11:29:19.037Z,9.78
2024-01-11T11:31:48.782Z,9.57
2024-01-11T11:34:17.708Z,9.62
2024-01-11T11:36:48.096Z,8.35
2024-01-11T11:39:16.096Z,8.74
2024-01-11T11:41:44.383Z,9.60
2024-01-11T11:44:14.509Z,9.28
2024-01-11T11:46:45.152Z,8.87
2024-01-11T11:49:14.717Z,8.20
2024-01-11T11:51:43.479Z,7.60
2024-01-11T11:54:11.934Z,6.81
2024-01-11T11:56:39.908Z,6.00
2024-01-11T11:59:07.913Z,5.56
2024-01-11T12:01:35.991Z,5.16
2024-01-11T12:04:05.519Z,4.73
2024-01-11T12:06:34.820Z,4.23
2024-01-11T12:09:03.825Z,3.87
2024-01-11T12:11:32.289Z,3.37
2024-01-11T12:14:00.387Z,3.16
2024-01-11T12:16:28.911Z,3.13
2024-01-11T12:18:57.182Z,2.98
2024-01-11T12:21:27.392Z,2.78
2024-01-11T12:23:55.415Z,2.65
2024-01-11T12:26:24.719Z,2.55
2024-01-11T12:28:53.789Z,2.44
2024-01-11T12:31:23.323Z,2.32
2024-01-11T12:33:51.743Z,2.06
2024-01-11T12:36:19.709Z,2.05
2024-01-11T12:38:53.307Z,2.06
2024-01-11T12:41:23.310Z,1.98
2024-01-11T12:43:51.367Z,1.85
2024-01-11T12:46:19.456Z,1.78
2024-01-11T12:48:48.266Z,1.67
2024-01-11T12:53:49.606Z,1.52
2024-01-11T12:56:19.330Z,1.62
2024-01-11T12:58:48.270Z,1.51
2024-01-11T13:01:16.530Z,1.38
2024-01-11T13:03:47.158Z,1.51
2024-01-11T13:06:15.315Z,1.40
2024-01-11T13:08:44.003Z,1.40
2024-01-11T13:11:15.247Z,1.44
2024-01-11T13:13:48.076Z,1.47
2024-01-11T13:16:17.182Z,1.47
2024-01-11T13:18:45.481Z,1.46
2024-01-11T13:21:14.543Z,1.45
2024-01-11T13:23:42.739Z,1.34
2024-01-11T13:26:11.110Z,1.30
2024-01-11T13:28:39.098Z,1.22
2024-01-11T13:31:11.049Z,1.20
2024-01-11T13:33:40.505Z,1.17
2024-01-11T13:36:09.985Z,1.18
2024-01-11T13:38:38.239Z,1.04
2024-01-11T13:41:09.144Z,1.02
2024-01-11T13:43:37.489Z,0.97
2024-01-11T13:46:06.387Z,0.95
2024-01-11T13:48:35.982Z,0.91
2024-01-11T13:51:05.229Z,0.80
2024-01-11T13:53:33.456Z,0.73
2024-01-11T13:56:01.428Z,0.69
2024-01-11T13:58:29.426Z,0.65
2024-01-11T14:00:58.602Z,0.57
2024-01-11T14:03:26.905Z,0.51
2024-01-11T14:05:56.423Z,0.48
2024-01-11T14:08:24.482Z,0.38
2024-01-11T14:10:52.510Z,0.30
2024-01-11T14:13:20.458Z,0.22
2024-01-11T14:15:49.358Z,0.23
2024-01-11T14:18:17.589Z,0.12
2024-01-11T14:20:45.891Z,0.11
2024-01-11T14:23:15.425Z,0.11
2024-01-11T14:25:43.717Z,0.08
2024-01-11T14:28:11.699Z,0.01
2024-01-11T14:30:39.773Z,-0.09
2024-01-11T14:33:07.890Z,-0.09
2024-01-11T14:35:36.036Z,-0.16
2024-01-11T14:38:05.531Z,-0.33
2024-01-11T14:40:35.423Z,-0.32
2024-01-11T14:43:05.348Z,-0.35
2024-01-11T14:45:33.269Z,-0.44
2024-01-11T14:48:02.008Z,-0.51
2024-01-11T14:50:30.353Z,-0.58
2024-01-11T14:52:58.591Z,-0.65
2024-01-11T14:55:26.517Z,-0.71
2024-01-11T14:57:57.044Z,-0.79
2024-01-11T15:00:26.182Z,-1.08
2024-01-11T15:02:54.597Z,-0.95
2024-01-11T15:05:22.610Z,-1.01
2024-01-11T15:07:50.556Z,-1.05
2024-01-11T15:10:18.937Z,-1.13
2024-01-11T15:12:47.552Z,-1.20
2024-01-11T15:15:17.112Z,-1.22
2024-01-11T15:17:45.088Z,-1.25
2024-01-11T15:20:13.883Z,-1.40
2024-01-11T15:22:42.018Z,-1.40
2024-01-11T15:25:10.271Z,-1.45
2024-01-11T15:27:38.188Z,-1.54
2024-01-11T15:30:07.116Z,-1.60
2024-01-11T15:32:37.239Z,-1.68
2024-01-11T15:35:08.891Z,-1.74
2024-01-11T15:37:37.094Z,-1.76
2024-01-11T15:40:05.891Z,-1.82
2024-01-11T15:42:35.479Z,-1.88
2024-01-11T15:45:03.718Z,-1.97
2024-01-11T15:47:32.507Z,-2.08
2024-01-11T15:50:01.911Z,-2.09
2024-01-11T15:52:29.864Z,-2.14
2024-01-11T15:55:00.686Z,-2.18
2024-01-11T15:57:28.677Z,-2.29
2024-01-11T15:59:56.777Z,-2.29
2024-01-11T16:02:24.930Z,-2.43
2024-01-11T16:04:52.941Z,-2.49
2024-01-11T16:07:22.266Z,-2.48
2024-01-11T16:09:51.123Z,-2.49
2024-01-11T16:12:20.339Z,-2.49
2024-01-11T16:14:48.789Z,-2.54
2024-01-11T16:17:16.794Z,-2.63
2024-01-11T16:19:44.834Z,-2.71
2024-01-11T16:22:13.000Z,-2.74
2024-01-11T16:24:42.489Z,-2.79
2024-01-11T16:27:12.237Z,-2.80
2024-01-11T16:29:41.091Z,-2.87
2024-01-11T16:32:09.207Z,-2.91
2024-01-11T16:34:38.541Z,-2.96
2024-01-11T16:37:06.551Z,-2.98
2024-01-11T16:39:34.541Z,-3.04
2024-01-11T16:42:03.987Z,-3.10
2024-01-11T16:44:31.974Z,-3.09
2024-01-11T16:46:59.990Z,-3.10
2024-01-11T16:49:28.043Z,-3.06
2024-01-11T16:51:56.404Z,-3.11
2024-01-11T16:54:24.367Z,-3.06
2024-01-11T16:56:52.793Z,-3.12
2024-01-11T16:59:23.321Z,-3.11
2024-01-11T17:01:51.305Z,-3.10
2024-01-11T17:04:19.416Z,-3.10
2024-01-11T17:06:47.397Z,-3.12
2024-01-11T17:09:15.893Z,-3.16
2024-01-11T17:11:44.103Z,-3.19
2024-01-11T17:14:12.736Z,-3.18
2024-01-11T17:16:42.229Z,-3.25
2024-01-11T17:19:10.429Z,-3.23
2024-01-11T17:21:38.377Z,-3.16
2024-01-11T17:24:07.198Z,-3.25
2024-01-11T17:26:35.303Z,-3.16
2024-01-11T17:29:03.310Z,-3.03
2024-01-11T17:31:31.437Z,-2.96
2024-01-11T17:34:00.903Z,-2.79
2024-01-11T17:36:29.140Z,-2.77
2024-01-11T17:38:57.170Z,-2.81
2024-01-11T17:41:25.227Z,-2.70
2024-01-11T17:43:54.063Z,-2.58
2024-01-11T17:46:27.938Z,-2.44
2024-01-11T17:48:57.569Z,-2.45
2024-01-11T17:51:27.250Z,-2.42
2024-01-11T17:53:55.280Z,-2.39
2024-01-11T17:56:24.448Z,-2.37
2024-01-11T17:58:53.240Z,-2.44
2024-01-11T18:01:22.545Z,-2.64
2024-01-11T18:03:50.663Z,-2.67
2024-01-11T18:06:18.811Z,-2.63
2024-01-11T18:08:48.476Z,-2.67
2024-01-11T18:11:16.765Z,-2.69
2024-01-11T18:13:44.765Z,-2.77
2024-01-11T18:16:12.753Z,-2.83
2024-01-11T18:18:40.801Z,-2.83
2024-01-11T18:21:08.828Z,-2.91
2024-01-11T18:23:36.834Z,-2.96
2024-01-11T18:26:07.263Z,-3.08
2024-01-11T18:28:35.306Z,-3.07
2024-01-11T18:31:03.409Z,-3.08
2024-01-11T18:33:31.482Z,-3.06
2024-01-11T18:35:59.522Z,-3.10
2024-01-11T18:38:27.574Z,-3.09
2024-01-11T18:40:55.589Z,-3.17
2024-01-11T18:43:25.468Z,-3.27
2024-01-11T18:45:53.469Z,-3.33
2024-01-11T18:48:21.649Z,-3.29
2024-01-11T18:50:49.810Z,-3.32
2024-01-11T18:53:18.476Z,-3.29
2024-01-11T18:55:46.620Z,-3.24
2024-01-11T18:58:15.838Z,-3.23
2024-01-11T19:00:45.415Z,-3.22
2024-01-11T19:03:16.110Z,-3.32
2024-01-11T19:05:45.101Z,-3.26
2024-01-11T19:08:13.630Z,-3.31
2024-01-11T19:10:41.753Z,-3.27
2024-01-11T19:13:09.749Z,-3.33
2024-01-11T19:15:37.842Z,-3.40
2024-01-11T19:18:09.909Z,-3.41
2024-01-11T19:20:38.423Z,-3.45
2024-01-11T19:23:06.736Z,-3.51
2024-01-11T19:25:35.044Z,-3.59
2024-01-11T19:28:03.267Z,-3.78
2024-01-11T19:30:32.755Z,-3.53
2024-01-11T19:33:03.933Z,-3.44
2024-01-11T19:35:33.443Z,-3.37
2024-01-11T19:38:01.542Z,-3.41
2024-01-11T19:40:29.472Z,-3.37
2024-01-11T19:42:57.446Z,-3.44
2024-01-11T19:45:25.468Z,-3.44
2024-01-11T19:47:52.559Z,-3.51
2024-01-11T19:50:20.605Z,-3.52
2024-01-11T19:52:51.593Z,-3.45
2024-01-11T19:55:19.850Z,-3.47
2024-01-11T19:57:47.853Z,-3.54
2024-01-11T20:00:16.809Z,-3.54
2024-01-11T20:02:44.913Z,-3.61
2024-01-11T20:05:13.530Z,-3.59
2024-01-11T20:07:41.505Z,-3.62
2024-01-11T20:10:11.576Z,-3.57
2024-01-11T20:12:39.746Z,-3.61
2024-01-11T20:15:10.042Z,-3.58
2024-01-11T20:17:38.227Z,-3.55
2024-01-11T20:20:09.460Z,-3.52
2024-01-11T20:22:37.630Z,-3.56
2024-01-11T20:25:06.068Z,-3.60
2024-01-11T20:27:36.303Z,-3.56
2024-01-11T20:30:07.779Z,-3.54
2024-01-11T20:32:37.989Z,-3.52
2024-01-11T20:35:06.805Z,-3.58
2024-01-11T20:37:34.839Z,-3.57
2024-01-11T20:40:02.786Z,-3.53
2024-01-11T20:42:30.967Z,-3.53
2024-01-11T20:45:00.532Z,-3.58
2024-01-11T20:47:28.635Z,-3.64
2024-01-11T20:49:56.707Z,-3.65
2024-01-11T20:52:24.748Z,-3.67
2024-01-11T20:54:54.098Z,-3.66
2024-01-11T20:57:22.289Z,-3.67
2024-01-11T20:59:50.310Z,-3.69
2024-01-11T21:02:19.754Z,-3.70
2024-01-11T21:04:47.714Z,-3.71
2024-01-11T21:07:15.653Z,-3.69
2024-01-11T21:09:43.634Z,-3.70
2024-01-11T21:12:11.579Z,-3.72
2024-01-11T21:14:39.599Z,-3.75
2024-01-11T21:17:07.698Z,-3.81
2024-01-11T21:19:37.126Z,-3.83
2024-01-11T21:22:05.279Z,-4.01
2024-01-11T21:24:33.230Z,-4.12
2024-01-11T21:27:01.384Z,-4.08
2024-01-11T21:29:29.402Z,-4.09
2024-01-11T21:31:57.345Z,-4.16
2024-01-11T21:34:25.454Z,-4.21
2024-01-11T21:36:55.437Z,-4.18
2024-01-11T21:39:24.098Z,-4.44
2024-01-11T21:41:52.068Z,-4.25
2024-01-11T21:44:20.124Z,-4.31
2024-01-11T21:46:48.142Z,-4.39
2024-01-11T21:49:20.090Z,-4.36
2024-01-11T21:51:49.016Z,-4.27
2024-01-11T21:54:19.538Z,-4.25
2024-01-11T21:56:47.706Z,-4.29
2024-01-11T21:59:15.884Z,-4.29
2024-01-11T22:01:44.647Z,-4.28
2024-01-11T22:04:12.974Z,-4.35
2024-01-11T22:06:41.116Z,-4.33
2024-01-11T22:09:09.315Z,-4.31
2024-01-11T22:11:38.800Z,-4.33
2024-01-11T22:14:06.807Z,-4.33
2024-01-11T22:16:34.863Z,-4.40
2024-01-11T22:19:04.485Z,-4.37
2024-01-11T22:21:32.727Z,-4.32
2024-01-11T22:24:00.783Z,-4.39
2024-01-11T22:26:30.142Z,-4.50
2024-01-11T22:29:00.541Z,-4.40
2024-01-11T22:31:33.467Z,-4.38
2024-01-11T22:34:01.663Z,-4.39
2024-01-11T22:36:30.997Z,-4.44
2024-01-11T22:38:58.912Z,-4.48
2024-01-11T22:41:26.909Z,-4.47
2024-01-11T22:43:55.131Z,-4.52
2024-01-11T22:46:24.422Z,-4.73
2024-01-11T22:48:52.733Z,-4.90
2024-01-11T22:51:20.722Z,-4.84
2024-01-11T22:53:50.390Z,-4.89
2024-01-11T22:56:18.439Z,-4.93
2024-01-11T22:58:46.447Z,-4.97
2024-01-11T23:01:14.454Z,-4.91
2024-01-11T23:03:43.862Z,-4.91
2024-01-11T23:06:12.040Z,-4.90
2024-01-11T23:08:40.141Z,-4.92
2024-01-11T23:11:08.209Z,-4.99
2024-01-11T23:13:36.174Z,-5.00
2024-01-11T23:16:04.109Z,-4.98
2024-01-11T23:18:32.271Z,-5.01
2024-01-11T23:21:01.771Z,-5.05
2024-01-11T23:23:29.866Z,-5.11
2024-01-11T23:25:57.815Z,-5.10
2024-01-11T23:28:25.757Z,-5.13
2024-01-11T23:30:53.711Z,-5.07
2024-01-11T23:33:21.890Z,-5.13
2024-01-11T23:35:50.049Z,-5.13
2024-01-11T23:38:20.077Z,-5.14
2024-01-11T23:40:48.021Z,-5.13
2024-01-11T23:43:15.970Z,-5.14
2024-01-11T23:45:43.922Z,-5.10
2024-01-11T23:48:12.072Z,-5.01
2024-01-11T23:50:40.206Z,-4.99
2024-01-11T23:53:08.200Z,-4.99
2024-01-11T23:55:37.459Z,-4.92
2024-01-11T23:58:05.831Z,-4.87
